Mariner Of The Seas — C6FV9 — position and weather

sailwx.info

Track history (hours):
 
Tides and Currents Weather Stations Pressure Air Temp Water Temp Dewpoint Dewpoint Depression Visibility Wind Speed Wind Dir Waves Ship Positions

Mariner Of The Seas

Operator: Royal Caribbean Cruises Ltd

Last reported at 2014-Sep-21 19:32 UTC. Time now 2014-Sep-21 22:12 UTC.
Position N 31°07' E 122°17'.

Type: Passenger vessel. MMSI: 311493000.

Date/timePositionNaut miles runAvg speedWind from/ knotsBaromVisibWave heightAir tempDewpointWater temp
2014-Sep-21 19:32N 31°07' E 122°17'  
2014-Sep-18 10:34N 31°21' E 121°40'9 9.4
2014-Sep-18 09:33N 31°25' E 121°30'0 0.2
2014-Sep-18 08:32N 31°25' E 121°30'0 0.0
2014-Sep-18 07:26N 31°25' E 121°30'0 0.0
2014-Sep-18 06:32N 31°25' E 121°30'0 0.0
2014-Sep-18 05:32N 31°25' E 121°30'0 0.0
2014-Sep-18 04:32N 31°25' E 121°30'0 0.0
2014-Sep-18 03:32N 31°25' E 121°30'0 0.0
2014-Sep-18 02:32N 31°25' E 121°30'0 0.0
2014-Sep-18 01:32N 31°25' E 121°30'0 0.0
2014-Sep-18 00:32N 31°25' E 121°30'0 0.3
2014-Sep-17 23:33N 31°25' E 121°30'1110.8
2014-Sep-17 22:34N 31°20' E 121°42'36 8.7
2014-Sep-17 18:24N 31°06' E 122°21'  
2014-Sep-14 10:04N 31°19' E 121°43'612.3
2014-Sep-14 09:33N 31°22' E 121°37'6 5.5
2014-Sep-14 08:28N 31°25' E 121°30'0 0.0
2014-Sep-14 07:22N 31°25' E 121°30'0 0.0
2014-Sep-14 06:28N 31°25' E 121°30'0 0.0
2014-Sep-14 05:16N 31°25' E 121°30'0 0.0
2014-Sep-14 04:16N 31°25' E 121°30'0 0.0
2014-Sep-14 02:28N 31°25' E 121°30'0 0.0
2014-Sep-14 01:28N 31°25' E 121°30'0 0.0
2014-Sep-13 21:22N 31°25' E 121°30'0 0.0
2014-Sep-13 20:16N 31°25' E 121°30'0 0.5
2014-Sep-13 19:33N 31°25' E 121°30'9 9.0
2014-Sep-13 18:33N 31°21' E 121°40'3610.5
2014-Sep-13 15:05N 31°06' E 122°19'811.9
2014-Sep-13 14:23N 31°06' E 122°28'2111.4
2014-Sep-13 12:33N 30°57' E 122°50'1515.2
2014-Sep-13 11:33N 30°43' E 122°58'1916.1
2014-Sep-13 10:22N 30°27' E 123°10'  
Track history (hours):
 
Tides and Currents Weather Stations Pressure Air Temp Water Temp Dewpoint Dewpoint Depression Visibility Wind Speed Wind Dir Waves Ship Positions

Mariner Of The Seas

Operator: Royal Caribbean Cruises Ltd

Last reported at 2014-Sep-21 19:32 UTC. Time now 2014-Sep-21 22:12 UTC.
Position N 31°07' E 122°17'.

Type: Passenger vessel. MMSI: 311493000.

Date/timePositionNaut miles runAvg speedWind from/ knotsBaromVisibWave heightAir tempDewpointWater temp
2014-Sep-21 19:32N 31°07' E 122°17'  
2014-Sep-18 10:34N 31°21' E 121°40'9 9.4
2014-Sep-18 09:33N 31°25' E 121°30'0 0.2
2014-Sep-18 08:32N 31°25' E 121°30'0 0.0
2014-Sep-18 07:26N 31°25' E 121°30'0 0.0
2014-Sep-18 06:32N 31°25' E 121°30'0 0.0
2014-Sep-18 05:32N 31°25' E 121°30'0 0.0
2014-Sep-18 04:32N 31°25' E 121°30'0 0.0
2014-Sep-18 03:32N 31°25' E 121°30'0 0.0
2014-Sep-18 02:32N 31°25' E 121°30'0 0.0
2014-Sep-18 01:32N 31°25' E 121°30'0 0.0
2014-Sep-18 00:32N 31°25' E 121°30'0 0.3
2014-Sep-17 23:33N 31°25' E 121°30'1110.8
2014-Sep-17 22:34N 31°20' E 121°42'36 8.7
2014-Sep-17 18:24N 31°06' E 122°21'  
2014-Sep-14 10:04N 31°19' E 121°43'612.3
2014-Sep-14 09:33N 31°22' E 121°37'6 5.5
2014-Sep-14 08:28N 31°25' E 121°30'0 0.0
2014-Sep-14 07:22N 31°25' E 121°30'0 0.0
2014-Sep-14 06:28N 31°25' E 121°30'0 0.0
2014-Sep-14 05:16N 31°25' E 121°30'0 0.0
2014-Sep-14 04:16N 31°25' E 121°30'0 0.0
2014-Sep-14 02:28N 31°25' E 121°30'0 0.0
2014-Sep-14 01:28N 31°25' E 121°30'0 0.0
2014-Sep-13 21:22N 31°25' E 121°30'0 0.0
2014-Sep-13 20:16N 31°25' E 121°30'0 0.5
2014-Sep-13 19:33N 31°25' E 121°30'9 9.0
2014-Sep-13 18:33N 31°21' E 121°40'3610.5
2014-Sep-13 15:05N 31°06' E 122°19'811.9
2014-Sep-13 14:23N 31°06' E 122°28'2111.4
2014-Sep-13 12:33N 30°57' E 122°50'1515.2
2014-Sep-13 11:33N 30°43' E 122°58'1916.1
2014-Sep-13 10:22N 30°27' E 123°10'  

Dump ship's entire track history